Time;durP1;ratioP1;P1;durP2;ratioP2;P2;SDS_P1;SDS_P2;PMS_P1;PMS_P2;Temp;Humidity;BMP_temperature;BMP_pressure;BME280_temperature;BME280_humidity;BME280_pressure;Samples;Min_cycle;Max_cycle;Signal;HPM_P1;HPM_P2
2021/07/30 00:00:38;;;;;;;11.08;7.60;;;;;;;20.47;52.20;99940.05;128575;1095;22799;-78
2021/07/30 00:03:21;;;;;;;17.13;7.65;;;;;;;20.38;52.47;99932.38;128640;1095;22365;-78
2021/07/30 00:05:52;;;;;;;14.93;8.23;;;;;;;20.36;52.00;99930.98;128594;1093;22398;-78
2021/07/30 00:08:22;;;;;;;11.48;8.45;;;;;;;20.31;52.46;99926.36;128631;1095;22356;-78
2021/07/30 00:10:57;;;;;;;10.70;8.30;;;;;;;20.29;52.55;99927.64;128646;1093;24220;-78
2021/07/30 00:13:26;;;;;;;13.73;7.88;;;;;;;20.23;52.88;99937.49;128300;1095;22343;-78
2021/07/30 00:15:56;;;;;;;10.60;8.85;;;;;;;20.16;53.29;99932.28;128674;1095;22362;-79
2021/07/30 00:18:26;;;;;;;11.25;9.43;;;;;;;20.10;53.58;99930.55;128640;1095;22347;-79
2021/07/30 00:20:55;;;;;;;11.00;7.90;;;;;;;20.05;54.08;99930.45;128339;1093;22382;-78
2021/07/30 00:23:25;;;;;;;13.00;8.20;;;;;;;20.00;54.14;99930.38;128664;1095;22358;-78
2021/07/30 00:25:55;;;;;;;8.65;7.83;;;;;;;19.96;54.29;99929.23;128584;1095;24189;-77
2021/07/30 00:28:24;;;;;;;11.53;8.17;;;;;;;19.90;54.62;99941.71;128621;1095;22343;-77
2021/07/30 00:30:54;;;;;;;12.08;7.60;;;;;;;19.85;54.99;99933.56;128262;1095;22346;-77
2021/07/30 00:33:23;;;;;;;8.75;7.85;;;;;;;19.82;55.27;99935.91;128546;1095;22343;-77
2021/07/30 00:35:55;;;;;;;11.45;7.90;;;;;;;19.78;55.80;99935.57;128677;1095;24044;-77
2021/07/30 00:38:24;;;;;;;10.28;8.08;;;;;;;19.74;56.02;99937.91;128261;1095;24987;-76
2021/07/30 00:40:54;;;;;;;15.07;7.80;;;;;;;19.69;56.00;99937.83;128240;1095;22420;-77
2021/07/30 00:43:23;;;;;;;10.38;8.55;;;;;;;19.67;56.05;99941.80;128641;1094;24243;-77
2021/07/30 00:45:56;;;;;;;13.33;8.10;;;;;;;19.65;55.77;99944.69;128191;1098;22426;-77
2021/07/30 00:48:31;;;;;;;10.18;8.93;;;;;;;19.62;55.53;99937.09;128176;1098;22348;-78
2021/07/30 00:51:01;;;;;;;11.83;8.78;;;;;;;19.58;55.66;99941.30;128135;1098;22350;-78
2021/07/30 00:53:31;;;;;;;15.55;8.90;;;;;;;19.57;55.48;99941.55;128163;1098;22369;-79
2021/07/30 00:56:01;;;;;;;10.83;8.08;;;;;;;19.55;55.69;99935.61;128200;1098;22354;-78
2021/07/30 00:58:31;;;;;;;12.50;7.88;;;;;;;19.52;56.18;99942.25;128209;1098;23129;-78
2021/07/30 01:01:01;;;;;;;9.60;8.15;;;;;;;19.46;55.32;99944.02;128203;1098;22369;-78
2021/07/30 01:03:31;;;;;;;13.08;9.33;;;;;;;19.44;55.46;99939.95;128242;1095;22366;-79
2021/07/30 01:06:01;;;;;;;14.03;7.55;;;;;;;19.42;55.40;99942.03;128598;1095;23296;-78
2021/07/30 01:08:31;;;;;;;10.18;7.35;;;;;;;19.41;55.18;99943.09;128569;1093;24994;-77
2021/07/30 01:11:00;;;;;;;8.83;7.70;;;;;;;19.40;55.34;99946.83;128263;1093;22344;-78
2021/07/30 01:13:30;;;;;;;12.40;7.48;;;;;;;19.38;54.84;99943.56;128658;1095;22369;-78
2021/07/30 01:15:59;;;;;;;10.88;6.55;;;;;;;19.35;55.11;99944.84;128607;1095;22340;-78
2021/07/30 01:18:29;;;;;;;8.18;6.28;;;;;;;19.35;54.83;99949.39;128667;1093;22360;-78
2021/07/30 01:21:11;;;;;;;9.60;6.35;;;;;;;19.35;54.49;99949.39;128586;1095;22857;-77
2021/07/30 01:23:41;;;;;;;12.43;6.80;;;;;;;19.35;54.72;99947.52;128304;1095;22352;-78
2021/07/30 01:26:11;;;;;;;8.63;6.98;;;;;;;19.38;55.10;99946.24;128621;1095;22355;-77
2021/07/30 01:28:40;;;;;;;8.93;6.43;;;;;;;19.38;54.03;99948.92;128561;1095;22353;-79
2021/07/30 01:31:10;;;;;;;11.07;6.70;;;;;;;19.37;54.62;99945.44;128287;1095;22366;-78
2021/07/30 01:33:40;;;;;;;13.13;7.30;;;;;;;19.35;54.58;99946.71;128312;1093;22407;-77
2021/07/30 01:36:09;;;;;;;10.63;7.68;;;;;;;19.34;55.04;99942.41;128277;1095;22338;-78
2021/07/30 01:38:39;;;;;;;8.10;6.85;;;;;;;19.33;55.29;99948.83;128629;1095;24482;-78
2021/07/30 01:41:11;;;;;;;11.03;6.93;;;;;;;19.32;55.01;99956.02;128604;1095;22635;-78
2021/07/30 01:43:43;;;;;;;11.90;7.55;;;;;;;19.31;55.47;99954.41;128300;1095;22328;-77
2021/07/30 01:46:13;;;;;;;12.50;7.37;;;;;;;19.30;55.68;99958.14;128288;1095;22605;-78
2021/07/30 01:48:43;;;;;;;9.13;6.93;;;;;;;19.30;55.97;99954.65;128246;1095;22350;-79
2021/07/30 01:51:12;;;;;;;11.65;7.68;;;;;;;19.29;55.92;99956.48;128570;1095;22340;-79
2021/07/30 01:53:42;;;;;;;15.35;6.85;;;;;;;19.27;55.78;99948.70;128626;1093;24482;-79
2021/07/30 01:56:11;;;;;;;11.13;6.73;;;;;;;19.28;55.78;99946.84;128589;1095;22340;-79
2021/07/30 01:58:41;;;;;;;17.43;7.10;;;;;;;19.28;55.82;99941.48;128581;1095;22363;-79
2021/07/30 02:01:11;;;;;;;13.35;6.35;;;;;;;19.25;55.38;99949.98;128205;1098;24804;-79
2021/07/30 02:03:41;;;;;;;8.05;6.20;;;;;;;19.20;55.57;99945.34;128172;1098;22353;-78
2021/07/30 02:06:10;;;;;;;10.60;6.13;;;;;;;19.18;55.06;99946.61;128144;1098;24304;-78
2021/07/30 02:08:40;;;;;;;12.70;6.93;;;;;;;19.15;54.85;99941.72;128181;1098;22385;-78
2021/07/30 02:11:11;;;;;;;9.75;6.63;;;;;;;19.13;54.86;99943.84;128149;1098;24253;-78
2021/07/30 02:16:29;;;;;;;9.68;5.53;;;;;;;19.05;54.25;99943.12;128214;1096;25436;-78
2021/07/30 02:18:58;;;;;;;8.50;6.03;;;;;;;19.03;54.33;99945.23;128269;1095;24220;-78
2021/07/30 02:21:28;;;;;;;12.93;6.20;;;;;;;19.01;54.49;99946.50;128545;1095;22363;-78
2021/07/30 02:23:58;;;;;;;6.68;5.90;;;;;;;18.99;54.19;99948.59;128639;1095;24459;-79
2021/07/30 02:26:27;;;;;;;11.15;6.83;;;;;;;18.97;54.35;99950.70;128573;1095;22344;-78
2021/07/30 02:28:57;;;;;;;7.45;6.65;;;;;;;18.92;54.79;99947.89;128549;1095;24208;-78
2021/07/30 02:31:26;;;;;;;9.83;7.33;;;;;;;18.87;54.71;99950.47;128560;1095;22359;-77
2021/07/30 02:33:56;;;;;;;9.08;7.75;;;;;;;18.78;54.98;99945.44;128573;1095;22653;-77
2021/07/30 02:36:26;;;;;;;11.33;8.57;;;;;;;18.73;55.33;99947.20;128279;1094;22350;-77
2021/07/30 02:38:56;;;;;;;10.13;7.28;;;;;;;18.66;55.72;99947.27;128584;1095;22345;-79
2021/07/30 02:41:25;;;;;;;11.00;7.40;;;;;;;18.63;56.23;99944.25;128279;1095;22341;-79
2021/07/30 02:43:57;;;;;;;10.90;8.68;;;;;;;18.58;56.31;99947.59;128534;1095;22342;-78
2021/07/30 02:46:26;;;;;;;;;;;;;;;18.46;56.21;99944.91;128325;1095;22375;-77
2021/07/30 02:48:56;;;;;;;9.83;8.45;;;;;;;18.40;56.76;99943.15;128288;1095;21266;-75
2021/07/30 02:51:26;;;;;;;12.10;7.60;;;;;;;18.38;56.92;99942.55;128622;1093;22354;-78
2021/07/30 02:53:55;;;;;;;10.40;7.88;;;;;;;18.35;56.90;99943.00;128283;1095;22359;-78
2021/07/30 02:56:25;;;;;;;9.43;7.88;;;;;;;18.32;57.30;99946.95;128307;1094;24482;-78
2021/07/30 02:58:54;;;;;;;10.20;8.00;;;;;;;18.31;57.64;99948.00;128573;1095;22340;-78
2021/07/30 03:01:24;;;;;;;11.25;7.25;;;;;;;18.31;57.37;99944.52;128597;1095;22347;-77
2021/07/30 03:03:54;;;;;;;10.00;7.40;;;;;;;18.31;57.52;99945.33;128602;1095;22347;-77
2021/07/30 03:06:24;;;;;;;8.48;7.65;;;;;;;18.33;57.74;99942.44;128571;1095;24506;-74
2021/07/30 03:08:56;;;;;;;10.88;7.93;;;;;;;18.32;58.03;99946.95;128607;1093;22366;-74
2021/07/30 03:11:26;;;;;;;15.50;13.80;;;;;;;18.32;58.15;99946.95;128552;1094;23111;-79
2021/07/30 03:13:56;;;;;;;105.93;98.18;;;;;;;18.33;58.25;99948.59;128295;1095;22357;-74
2021/07/30 03:16:26;;;;;;;9.27;8.30;;;;;;;18.31;58.59;99958.69;128530;1095;22789;-75
2021/07/30 03:18:55;;;;;;;18.15;10.28;;;;;;;18.28;58.84;99951.13;128504;1095;22356;-76
2021/07/30 03:21:25;;;;;;;11.80;9.25;;;;;;;18.23;59.00;99958.22;128560;1093;22347;-76
2021/07/30 03:23:54;;;;;;;13.48;9.13;;;;;;;18.18;59.19;99958.07;128632;1093;22365;-76
2021/07/30 03:26:24;;;;;;;14.83;9.68;;;;;;;18.14;59.86;99960.39;128638;1095;22359;-76
2021/07/30 03:28:53;;;;;;;14.13;9.80;;;;;;;18.11;59.88;99952.81;128623;1093;22436;-76
2021/07/30 03:31:23;;;;;;;10.78;9.03;;;;;;;18.07;60.01;99963.15;128608;1093;22341;-75
2021/07/30 03:33:53;;;;;;;11.73;9.35;;;;;;;18.05;60.57;99959.88;128672;1093;22372;-75
2021/07/30 03:36:23;;;;;;;14.53;9.10;;;;;;;18.02;60.55;99964.86;128770;1095;22339;-75
2021/07/30 03:38:52;;;;;;;11.98;9.08;;;;;;;17.99;60.63;99960.77;128575;1095;22237;-75
2021/07/30 03:41:22;;;;;;;9.47;8.47;;;;;;;17.97;60.73;99968.22;128601;1093;22365;-76
2021/07/30 03:43:51;;;;;;;9.95;8.43;;;;;;;17.96;60.92;99966.59;128280;1095;24994;-75
2021/07/30 03:46:21;;;;;;;15.08;9.35;;;;;;;17.95;61.31;99962.27;128628;1095;24211;-75
2021/07/30 03:48:51;;;;;;;13.23;8.95;;;;;;;17.96;61.35;99969.27;128596;1094;22461;-75
2021/07/30 03:51:20;;;;;;;10.73;9.68;;;;;;;17.96;61.34;99971.10;128588;1095;22362;-75
2021/07/30 03:53:50;;;;;;;13.95;9.23;;;;;;;17.96;61.38;99957.73;128608;1095;22347;-75
2021/07/30 03:56:19;;;;;;;11.78;9.08;;;;;;;17.99;62.14;99967.98;128217;1097;22363;-76
2021/07/30 03:58:49;;;;;;;17.65;8.93;;;;;;;18.01;62.06;99960.56;127901;1098;22536;-74
2021/07/30 04:01:18;;;;;;;10.70;8.68;;;;;;;18.03;62.14;99964.65;127930;1098;22377;-75
2021/07/30 04:03:50;;;;;;;10.33;9.25;;;;;;;18.05;62.17;99967.89;127943;1098;22395;-75
2021/07/30 04:06:20;;;;;;;14.60;10.05;;;;;;;18.09;62.30;99970.92;127985;1096;22372;-75
2021/07/30 04:08:49;;;;;;;10.70;9.43;;;;;;;18.14;62.17;99970.27;127945;1098;24205;-75
2021/07/30 04:11:19;;;;;;;11.45;9.73;;;;;;;18.17;62.16;99970.63;127922;1098;22701;-75
2021/07/30 04:13:49;;;;;;;14.98;10.48;;;;;;;18.18;62.48;99977.59;127918;1098;22377;-75
2021/07/30 04:16:19;;;;;;;12.63;9.25;;;;;;;18.23;62.04;99980.42;128198;1095;23150;-75
2021/07/30 04:18:48;;;;;;;16.98;9.13;;;;;;;18.29;62.34;99970.66;128614;1095;22359;-74
2021/07/30 04:21:18;;;;;;;15.80;8.85;;;;;;;18.37;61.88;99980.23;128571;1095;22344;-75
2021/07/30 04:23:47;;;;;;;13.83;7.65;;;;;;;18.42;61.07;99975.00;128593;1093;24223;-74
2021/07/30 04:26:17;;;;;;;8.47;7.23;;;;;;;18.48;60.48;99974.91;128577;1095;22361;-74
2021/07/30 04:28:46;;;;;;;12.80;8.73;;;;;;;18.57;59.48;99975.40;128632;1094;25098;-76
2021/07/30 04:31:16;;;;;;;10.93;7.48;;;;;;;18.64;58.78;99975.30;128354;1095;22346;-75
2021/07/30 04:33:46;;;;;;;12.43;7.60;;;;;;;18.70;58.59;99977.06;128289;1095;22442;-75
2021/07/30 04:36:16;;;;;;;11.93;7.40;;;;;;;18.75;58.29;99974.52;128648;1095;22379;-75
2021/07/30 04:38:46;;;;;;;10.45;7.38;;;;;;;18.80;57.75;99975.47;128238;1098;22465;-75
2021/07/30 04:41:16;;;;;;;11.13;7.35;;;;;;;18.85;57.61;99974.77;128194;1098;22349;-75
2021/07/30 04:43:46;;;;;;;12.23;7.95;;;;;;;18.89;57.43;99983.14;128169;1098;22372;-75
2021/07/30 04:46:17;;;;;;;11.83;7.30;;;;;;;18.95;57.53;99988.39;128139;1098;24496;-75
2021/07/30 04:48:47;;;;;;;9.53;7.60;;;;;;;19.00;57.72;99987.72;128131;1097;22372;-74
2021/07/30 04:51:18;;;;;;;10.55;7.90;;;;;;;19.08;56.66;99982.00;128151;1097;23930;-74
2021/07/30 04:53:49;;;;;;;12.95;7.45;;;;;;;19.14;56.76;99981.08;128160;1098;25001;-76
2021/07/30 04:56:19;;;;;;;12.88;8.00;;;;;;;19.21;56.14;99981.77;128222;1095;22377;-75
2021/07/30 04:58:52;;;;;;;8.78;6.78;;;;;;;19.30;56.12;99984.11;128240;1093;24512;-75
2021/07/30 05:01:22;;;;;;;10.65;7.00;;;;;;;19.36;55.83;99983.98;128162;1098;22395;-76
2021/07/30 05:03:52;;;;;;;11.70;7.40;;;;;;;19.44;55.57;99980.13;128212;1098;22394;-75
2021/07/30 05:06:21;;;;;;;10.70;7.05;;;;;;;19.55;55.55;99979.28;128145;1098;22394;-76
2021/07/30 05:08:51;;;;;;;10.95;7.05;;;;;;;19.67;55.54;99980.12;128146;1098;22480;-75
2021/07/30 05:11:21;;;;;;;12.65;7.40;;;;;;;19.78;55.50;99981.13;128011;1096;22385;-76
2021/07/30 05:13:50;;;;;;;9.40;6.73;;;;;;;19.98;54.88;99978.85;128397;1097;24540;-75
2021/07/30 05:16:20;;;;;;;10.65;6.85;;;;;;;20.24;54.96;99986.58;128153;1098;22363;-76
2021/07/30 05:18:49;;;;;;;10.55;6.90;;;;;;;;;;128159;1095;22510;-75
2021/07/30 05:21:23;;;;;;;12.95;7.13;;;;;;;20.77;54.25;99982.70;128334;1094;22344;-74
2021/07/30 05:23:53;;;;;;;12.53;6.30;;;;;;;21.06;53.28;99986.92;128575;1095;22365;-74
2021/07/30 05:26:23;;;;;;;18.20;8.38;;;;;;;21.23;52.10;99989.59;128622;1093;24220;-75
2021/07/30 05:28:52;;;;;;;6.60;5.88;;;;;;;21.28;51.77;99992.33;128617;1094;22340;-75
2021/07/30 05:31:23;;;;;;;12.40;6.60;;;;;;;21.32;51.69;99987.28;128588;1095;22442;-75
2021/07/30 05:33:53;;;;;;;10.75;5.75;;;;;;;21.33;51.29;99994.30;128674;1095;22363;-75
2021/07/30 05:36:23;;;;;;;11.18;5.95;;;;;;;21.35;51.22;99994.88;128563;1095;22346;-75
2021/07/30 05:38:52;;;;;;;11.47;6.07;;;;;;;21.38;51.04;99997.06;128301;1095;22343;-75
2021/07/30 05:41:22;;;;;;;7.50;5.75;;;;;;;21.38;51.06;99994.38;128611;1093;23832;-75
2021/07/30 05:43:52;;;;;;;8.58;6.30;;;;;;;21.34;51.14;99991.38;128594;1095;22344;-75
2021/07/30 05:46:21;;;;;;;9.40;6.25;;;;;;;21.38;50.87;99991.70;128605;1093;22363;-75
2021/07/30 05:48:56;;;;;;;9.48;6.08;;;;;;;21.49;51.59;99989.95;128636;1094;22328;-75
2021/07/30 05:51:26;;;;;;;8.73;5.50;;;;;;;21.75;51.94;100001.86;128644;1093;22364;-75
2021/07/30 05:53:55;;;;;;;10.23;6.10;;;;;;;21.91;50.91;99997.48;128658;1095;22362;-75
2021/07/30 05:56:25;;;;;;;8.73;5.93;;;;;;;21.98;49.93;99996.22;128627;1095;22363;-75
2021/07/30 05:58:55;;;;;;;6.98;5.35;;;;;;;22.04;49.97;99991.72;128288;1095;22795;-76
2021/07/30 06:01:24;;;;;;;14.88;6.93;;;;;;;22.26;50.11;99991.73;128282;1095;24509;-75
2021/07/30 06:03:56;;;;;;;11.78;5.43;;;;;;;22.65;49.59;99988.84;128603;1095;22343;-75
2021/07/30 06:06:25;;;;;;;12.00;5.23;;;;;;;23.06;48.78;99989.18;128621;1095;22344;-74
2021/07/30 06:08:55;;;;;;;11.80;5.93;;;;;;;23.40;47.71;99989.69;128578;1095;22359;-75
2021/07/30 06:11:25;;;;;;;15.53;5.63;;;;;;;23.78;47.41;99993.92;128607;1095;24336;-76
2021/07/30 06:13:54;;;;;;;10.75;5.55;;;;;;;24.14;46.44;99994.05;128534;1095;24053;-75
2021/07/30 06:16:24;;;;;;;9.13;5.45;;;;;;;24.55;45.36;99989.55;128257;1095;22347;-75
2021/07/30 06:19:09;;;;;;;10.08;4.25;;;;;;;25.03;44.26;99989.28;128532;1095;22347;-75
2021/07/30 06:21:38;;;;;;;7.73;5.18;;;;;;;25.19;43.18;99996.31;128249;1093;24178;-75
2021/07/30 06:24:08;;;;;;;10.23;4.55;;;;;;;25.37;43.28;99988.70;128273;1095;22340;-75
2021/07/30 06:26:38;;;;;;;8.73;4.78;;;;;;;25.76;43.17;99997.77;128644;1095;22341;-75
2021/07/30 06:29:07;;;;;;;6.33;4.73;;;;;;;26.13;42.10;99993.83;128585;1095;22344;-75
2021/07/30 06:31:37;;;;;;;7.13;4.50;;;;;;;26.48;41.63;99992.80;128299;1095;24294;-74
2021/07/30 06:34:06;;;;;;;9.33;4.60;;;;;;;26.94;40.17;99983.48;128577;1095;22343;-76
2021/07/30 06:36:36;;;;;;;8.50;4.28;;;;;;;27.34;38.95;99985.01;128311;1095;24476;-76
2021/07/30 06:39:06;;;;;;;7.78;4.28;;;;;;;27.69;38.26;99981.08;128304;1095;22373;-74
2021/07/30 06:41:40;;;;;;;7.93;3.98;;;;;;;28.01;37.86;99986.94;128623;1095;22362;-75
2021/07/30 06:44:10;;;;;;;6.50;3.60;;;;;;;28.15;36.97;99987.81;128648;1094;22348;-75
2021/07/30 06:46:40;;;;;;;7.73;4.43;;;;;;;28.33;36.51;99987.02;128666;1095;22343;-75
2021/07/30 06:49:10;;;;;;;9.08;3.95;;;;;;;28.69;36.47;99978.34;128366;1093;24506;-74
2021/07/30 06:51:39;;;;;;;7.88;3.63;;;;;;;28.89;35.39;99981.79;128640;1095;22404;-75
2021/07/30 06:54:09;;;;;;;8.60;3.60;;;;;;;28.94;34.57;99981.71;128606;1093;22340;-74
2021/07/30 06:56:39;;;;;;;10.75;5.15;;;;;;;28.87;34.98;99981.30;128592;1094;24237;-75
2021/07/30 06:59:08;;;;;;;6.05;3.70;;;;;;;29.03;34.22;99979.95;128593;1095;22343;-75
2021/07/30 07:01:39;;;;;;;7.58;3.60;;;;;;;29.09;33.67;99981.48;128274;1095;22391;-75
2021/07/30 07:04:09;;;;;;;8.83;3.33;;;;;;;29.21;33.15;99973.61;128250;1095;24509;-75
2021/07/30 07:06:38;;;;;;;5.65;2.40;;;;;;;29.49;32.64;99971.72;128582;1095;22359;-75
2021/07/30 07:09:08;;;;;;;5.48;2.68;;;;;;;29.73;31.17;99968.00;128590;1095;22350;-75
2021/07/30 07:11:37;;;;;;;5.48;2.43;;;;;;;29.88;30.64;99978.55;128272;1093;22363;-75
2021/07/30 07:14:07;;;;;;;8.88;3.20;;;;;;;30.18;29.93;99978.98;128262;1095;25413;-75
2021/07/30 07:16:37;;;;;;;5.80;3.25;;;;;;;30.34;29.34;99977.54;128584;1095;22338;-76
2021/07/30 07:19:11;;;;;;;4.70;2.70;;;;;;;30.40;28.90;99970.06;128295;1095;22343;-76
2021/07/30 07:21:41;;;;;;;5.20;2.20;;;;;;;30.44;28.38;99973.77;128599;1095;24485;-76
2021/07/30 07:24:10;;;;;;;8.55;2.68;;;;;;;30.43;28.38;99966.72;128308;1095;23110;-76
2021/07/30 07:26:40;;;;;;;6.05;2.23;;;;;;;30.23;28.50;99966.08;128572;1095;22338;-76
2021/07/30 07:29:10;;;;;;;5.67;2.37;;;;;;;30.38;29.56;99962.17;128578;1095;22361;-75
2021/07/30 07:31:39;;;;;;;6.73;2.50;;;;;;;30.42;29.19;99962.36;128342;1095;22382;-76
2021/07/30 07:34:09;;;;;;;5.48;2.43;;;;;;;30.48;28.60;99961.92;128555;1094;22367;-76
2021/07/30 07:36:39;;;;;;;7.70;2.98;;;;;;;30.58;28.65;99957.34;128283;1095;22341;-75
2021/07/30 07:39:08;;;;;;;13.53;3.25;;;;;;;30.58;28.46;99962.80;128167;1098;22551;-75
2021/07/30 07:41:38;;;;;;;6.63;2.78;;;;;;;30.52;28.71;99959.38;128218;1098;22395;-76
2021/07/30 07:44:08;;;;;;;4.78;2.50;;;;;;;30.37;28.52;99960.58;128189;1095;22626;-74
2021/07/30 07:46:37;;;;;;;6.28;2.30;;;;;;;30.14;28.23;99961.64;128207;1095;22347;-75
2021/07/30 07:49:07;;;;;;;6.05;2.48;;;;;;;30.13;28.61;99949.95;128150;1095;22345;-75
2021/07/30 07:51:37;;;;;;;7.13;2.28;;;;;;;30.30;28.67;99960.20;128197;1095;22359;-76
2021/07/30 07:54:06;;;;;;;5.28;2.30;;;;;;;30.39;27.60;99952.91;128216;1095;22340;-75
2021/07/30 07:56:36;;;;;;;8.83;3.33;;;;;;;30.23;27.70;99943.48;128236;1095;22343;-75
2021/07/30 07:59:07;;;;;;;11.58;2.90;;;;;;;30.30;27.86;99945.78;128581;1095;22347;-75
2021/07/30 08:01:37;;;;;;;6.55;2.48;;;;;;;30.57;27.66;99944.84;128313;1095;22347;-76
2021/07/30 08:04:07;;;;;;;5.33;2.05;;;;;;;30.88;27.08;99953.06;128669;1094;22371;-75
2021/07/30 08:06:36;;;;;;;10.40;2.48;;;;;;;31.14;26.00;99942.27;128318;1095;22348;-75
2021/07/30 08:09:06;;;;;;;5.00;1.88;;;;;;;31.09;25.89;99947.85;128344;1095;22343;-75
2021/07/30 08:11:36;;;;;;;5.33;2.60;;;;;;;31.23;26.08;99943.11;128318;1095;22648;-75
2021/07/30 08:14:06;;;;;;;5.45;2.00;;;;;;;31.32;25.42;99938.53;128603;1093;22351;-75
2021/07/30 08:16:36;;;;;;;7.08;1.60;;;;;;;31.22;25.09;99937.95;128638;1095;22398;-75
2021/07/30 08:19:05;;;;;;;4.95;2.10;;;;;;;31.09;25.00;99934.21;128539;1095;25001;-76
2021/07/30 08:21:35;;;;;;;4.60;1.95;;;;;;;31.15;25.21;99941.14;128580;1094;23288;-75
2021/07/30 08:24:05;;;;;;;5.53;1.80;;;;;;;31.24;25.09;99936.53;128642;1094;23125;-76
2021/07/30 08:26:34;;;;;;;6.73;1.90;;;;;;;31.20;24.52;99949.20;128349;1095;24058;-75
2021/07/30 08:29:04;;;;;;;4.35;1.90;;;;;;;31.15;24.75;99950.13;128364;1095;22380;-75
2021/07/30 08:31:34;;;;;;;7.25;1.90;;;;;;;31.20;25.09;99934.76;128306;1095;22362;-75
2021/07/30 08:34:04;;;;;;;5.03;1.88;;;;;;;31.30;24.54;99943.45;128343;1095;22345;-76
2021/07/30 08:36:33;;;;;;;4.83;1.85;;;;;;;31.29;24.23;99939.13;128450;1095;22363;-75
2021/07/30 08:39:03;;;;;;;3.80;1.90;;;;;;;31.25;24.35;99942.78;128326;1095;22365;-75
2021/07/30 08:41:35;;;;;;;3.98;1.85;;;;;;;31.20;25.27;99934.76;128313;1095;22363;-75
2021/07/30 08:44:08;;;;;;;6.08;1.75;;;;;;;31.30;25.12;99943.45;128316;1095;22362;-76
2021/07/30 08:46:40;;;;;;;5.80;1.78;;;;;;;31.17;24.62;99941.64;128710;1095;22348;-76
2021/07/30 08:49:10;;;;;;;3.80;2.03;;;;;;;31.14;24.62;99939.55;128331;1095;22337;-76
2021/07/30 08:51:43;;;;;;;3.33;1.58;;;;;;;31.26;24.16;99941.69;128588;1095;22363;-75
2021/07/30 08:54:16;;;;;;;6.65;2.13;;;;;;;31.13;24.22;99944.20;128336;1095;22344;-74
2021/07/30 08:56:47;;;;;;;5.45;1.88;;;;;;;31.04;24.20;99940.63;128359;1093;24294;-75
2021/07/30 08:59:17;;;;;;;8.43;2.13;;;;;;;31.07;24.37;99939.20;128610;1095;24995;-75
2021/07/30 09:01:55;;;;;;;5.73;2.70;;;;;;;31.11;24.91;99938.24;128361;1094;22379;-75
2021/07/30 09:04:29;;;;;;;6.33;1.73;;;;;;;31.26;24.67;99933.50;128288;1095;24486;-76
2021/07/30 09:07:02;;;;;;;6.15;2.33;;;;;;;31.25;24.21;99932.67;128305;1095;22344;-75
2021/07/30 09:09:33;;;;;;;4.38;2.63;;;;;;;31.14;24.39;99923.17;128564;1095;24522;-76
2021/07/30 09:12:05;;;;;;;;;;;;;;;31.12;24.56;99920.77;128625;1095;22346;-75
2021/07/30 09:14:38;;;;;;;4.80;1.90;;;;;;;31.00;24.28;99922.48;128331;1095;21266;-74
2021/07/30 09:17:08;;;;;;;4.93;1.83;;;;;;;31.02;25.24;99921.03;128262;1095;24489;-76
2021/07/30 09:20:02;;;;;;;2.80;1.60;;;;;;;31.23;25.00;99918.56;128338;1094;22346;-75
2021/07/30 09:22:49;;;;;;;13.00;3.33;;;;;;;31.53;24.40;99914.17;128284;1098;22349;-75
2021/07/30 09:25:36;;;;;;;7.58;1.78;;;;;;;31.71;24.12;99914.19;128062;1098;22373;-76
2021/07/30 09:28:08;;;;;;;4.85;1.98;;;;;;;31.78;23.66;99906.31;128240;1098;22353;-75
2021/07/30 09:30:38;;;;;;;3.00;1.73;;;;;;;31.86;23.41;99906.33;128252;1098;22353;-75
2021/07/30 09:33:08;;;;;;;3.43;1.50;;;;;;;31.94;23.34;99902.02;128336;1098;22465;-75
2021/07/30 09:35:57;;;;;;;8.43;1.93;;;;;;;32.01;23.54;99902.33;128053;1098;22369;-76
2021/07/30 09:38:26;;;;;;;4.33;1.98;;;;;;;32.14;23.65;99897.83;128245;1098;22346;-75
2021/07/30 09:41:14;;;;;;;4.43;2.37;;;;;;;32.13;23.35;99890.77;128408;1095;22350;-75
2021/07/30 09:43:45;;;;;;;5.45;2.00;;;;;;;32.21;23.07;99883.67;128318;1095;22298;-75
2021/07/30 09:46:15;;;;;;;10.90;2.40;;;;;;;32.32;22.77;99891.22;128340;1095;22354;-74
2021/07/30 09:48:52;;;;;;;7.70;2.43;;;;;;;32.40;22.83;99880.59;128614;1095;22363;-74
2021/07/30 09:51:23;;;;;;;9.60;2.38;;;;;;;32.45;22.86;99877.70;128530;1095;22800;-76
2021/07/30 09:53:53;;;;;;;;;;;;;;;32.25;21.86;99870.96;128623;1095;22723;-75
2021/07/30 09:56:23;;;;;;;4.38;1.80;;;;;;;32.21;23.33;99868.08;128269;1095;21262;-75
2021/07/30 09:58:57;;;;;;;6.03;1.40;;;;;;;32.11;23.10;99874.68;128607;1094;22412;-76
2021/07/30 10:01:28;;;;;;;6.18;1.83;;;;;;;32.14;23.16;99873.23;128302;1095;22631;-75
2021/07/30 10:04:02;;;;;;;5.55;2.48;;;;;;;32.10;23.07;99869.55;128614;1095;24495;-75
2021/07/30 10:06:32;;;;;;;3.65;1.93;;;;;;;31.96;23.46;99863.47;128551;1095;22346;-75
2021/07/30 10:09:01;;;;;;;;;;;;;;;32.03;23.55;99861.05;128297;1095;22342;-75
2021/07/30 10:11:37;;;;;;;6.63;3.10;;;;;;;31.96;23.37;99858.00;128630;1093;22674;-76
2021/07/30 10:14:08;;;;;;;4.23;2.35;;;;;;;31.81;23.11;99860.05;128587;1095;24103;-75
2021/07/30 10:16:50;;;;;;;4.30;1.90;;;;;;;31.68;23.15;99850.09;128609;1095;22363;-76
2021/07/30 10:19:20;;;;;;;9.68;1.93;;;;;;;31.70;23.10;99860.70;128369;1095;22359;-75
2021/07/30 10:21:50;;;;;;;2.70;1.80;;;;;;;31.45;23.04;99854.09;128679;1095;22359;-75
2021/07/30 10:24:20;;;;;;;2.63;1.27;;;;;;;31.27;23.45;99856.77;128317;1095;22343;-76
2021/07/30 10:26:50;;;;;;;3.80;2.60;;;;;;;31.25;23.54;99847.28;128374;1094;24239;-74
2021/07/30 10:29:20;;;;;;;7.57;3.23;;;;;;;31.30;23.97;99842.48;128212;1097;22382;-74
2021/07/30 10:31:50;;;;;;;4.05;1.85;;;;;;;31.30;23.72;99845.22;128033;1098;23467;-77
2021/07/30 10:34:48;;;;;;;3.00;1.80;;;;;;;31.30;23.78;99839.76;127967;1098;22359;-76
2021/07/30 10:37:36;;;;;;;5.65;2.00;;;;;;;31.09;23.93;99830.55;128044;1098;22364;-76
2021/07/30 10:40:30;;;;;;;5.40;1.55;;;;;;;30.83;23.96;99841.41;128034;1098;22386;-75
2021/07/30 10:43:14;;;;;;;15.30;1.98;;;;;;;30.43;24.20;99833.98;128028;1098;22375;-75
2021/07/30 10:46:05;;;;;;;3.55;1.85;;;;;;;30.10;24.59;99825.27;128002;1098;22408;-75
2021/07/30 10:48:37;;;;;;;8.13;2.20;;;;;;;29.66;25.57;99835.03;128440;1095;22359;-76
2021/07/30 10:51:28;;;;;;;6.93;2.23;;;;;;;29.36;25.67;99827.50;128195;1097;23107;-74
2021/07/30 10:54:03;;;;;;;5.83;2.48;;;;;;;29.14;26.27;99817.39;128220;1098;22375;-75
2021/07/30 10:56:42;;;;;;;6.93;2.60;;;;;;;29.19;26.89;99818.09;128189;1098;22335;-75
2021/07/30 10:59:12;;;;;;;7.28;3.28;;;;;;;29.18;26.75;99812.94;127924;1096;22375;-76
2021/07/30 11:02:02;;;;;;;7.25;2.20;;;;;;;29.11;27.41;99810.63;128188;1098;23129;-75
2021/07/30 11:04:33;;;;;;;6.85;2.73;;;;;;;29.07;27.18;99817.80;127904;1101;22395;-76
2021/07/30 11:07:04;;;;;;;7.53;2.80;;;;;;;28.90;27.10;99804.79;127959;1101;22404;-75
2021/07/30 11:09:39;;;;;;;7.95;3.23;;;;;;;28.68;27.63;99800.05;128062;1098;22476;-77
2021/07/30 11:12:13;;;;;;;4.60;2.48;;;;;;;28.57;27.94;99804.88;128161;1098;22437;-75
2021/07/30 11:14:45;;;;;;;5.78;2.28;;;;;;;28.49;27.52;99794.72;128004;1098;22353;-75
2021/07/30 11:17:16;;;;;;;5.35;2.55;;;;;;;28.43;28.43;99801.35;128042;1098;22396;-75
2021/07/30 11:19:49;;;;;;;5.35;2.23;;;;;;;28.37;28.25;99791.65;128034;1098;22462;-75
2021/07/30 11:22:20;;;;;;;5.55;1.93;;;;;;;28.27;28.28;99789.92;128186;1098;22328;-75
2021/07/30 11:24:54;;;;;;;4.28;2.10;;;;;;;28.17;28.34;99792.02;127987;1098;22420;-76
2021/07/30 11:27:25;;;;;;;6.00;2.10;;;;;;;28.06;28.43;99788.67;128153;1098;22399;-76
2021/07/30 11:29:59;;;;;;;2.63;1.43;;;;;;;27.97;28.70;99774.97;128178;1098;22346;-78
2021/07/30 11:32:31;;;;;;;4.98;1.95;;;;;;;27.91;28.58;99781.58;128172;1098;22875;-78
2021/07/30 11:35:09;;;;;;;6.78;1.73;;;;;;;27.79;28.76;99789.37;128260;1098;22408;-79
2021/07/30 11:37:39;;;;;;;5.20;1.85;;;;;;;27.75;28.96;99783.70;127936;1098;22372;-78
2021/07/30 11:40:15;;;;;;;5.33;1.93;;;;;;;27.75;29.13;99774.75;128177;1098;22727;-77
2021/07/30 11:42:45;;;;;;;5.30;1.70;;;;;;;27.71;28.84;99779.17;128486;1095;22356;-78